createdAt,value
2023-02-23T00:00:15.151Z,23.53
2023-02-23T00:03:19.104Z,34.97
2023-02-23T00:06:26.448Z,44.53
2023-02-23T00:09:35.730Z,42.50
2023-02-23T00:12:39.620Z,41.33
2023-02-23T00:15:43.432Z,31.97
2023-02-23T00:18:50.876Z,28.83
2023-02-23T00:21:58.940Z,34.27
2023-02-23T00:25:03.381Z,35.10
2023-02-23T00:28:07.584Z,32.80
2023-02-23T00:31:12.325Z,30.37
2023-02-23T00:34:21.181Z,28.83
2023-02-23T00:37:26.586Z,26.17
2023-02-23T00:40:30.686Z,25.63
2023-02-23T00:43:37.367Z,33.53
2023-02-23T00:46:41.994Z,29.40
2023-02-23T00:49:46.212Z,30.03
2023-02-23T00:52:51.536Z,28.00
2023-02-23T00:55:56.454Z,27.97
2023-02-23T00:59:00.286Z,28.10
2023-02-23T01:02:04.267Z,26.23
2023-02-23T01:05:08.942Z,25.90
2023-02-23T01:08:15.534Z,27.50
2023-02-23T01:11:23.461Z,24.17
2023-02-23T01:14:27.271Z,25.57
2023-02-23T01:17:49.678Z,26.37
2023-02-23T01:20:53.688Z,29.43
2023-02-23T01:23:59.430Z,26.73
2023-02-23T01:27:03.239Z,27.97
2023-02-23T01:30:10.392Z,28.97
2023-02-23T01:33:14.189Z,30.87
2023-02-23T01:36:18.855Z,33.07
2023-02-23T01:39:24.170Z,30.70
2023-02-23T01:42:28.061Z,35.87
2023-02-23T01:45:43.760Z,29.53
2023-02-23T01:48:48.547Z,32.40
2023-02-23T01:52:01.219Z,35.40
2023-02-23T01:55:13.070Z,31.50
2023-02-23T01:58:21.397Z,39.13
2023-02-23T02:01:25.555Z,36.70
2023-02-23T02:04:33.805Z,34.97
2023-02-23T02:07:39.865Z,33.27
2023-02-23T02:10:46.508Z,35.90
2023-02-23T02:13:50.599Z,35.97
2023-02-23T02:17:13.891Z,35.23
2023-02-23T02:20:52.466Z,33.37
2023-02-23T02:24:53.625Z,28.77
2023-02-23T02:28:51.367Z,36.23
2023-02-23T02:32:47.509Z,41.90
2023-02-23T02:36:34.300Z,46.77
2023-02-23T02:39:53.753Z,45.10
2023-02-23T02:43:10.421Z,50.53
2023-02-23T02:46:22.866Z,48.83
2023-02-23T02:49:32.824Z,50.67
2023-02-23T02:52:42.399Z,60.70
2023-02-23T02:55:50.338Z,50.93
2023-02-23T02:58:55.909Z,53.23
2023-02-23T03:02:17.668Z,52.43
2023-02-23T03:05:42.858Z,50.87
2023-02-23T03:09:19.710Z,51.10
2023-02-23T03:12:58.412Z,57.60
2023-02-23T03:16:39.724Z,54.77
2023-02-23T03:20:12.535Z,58.03
2023-02-23T03:23:42.138Z,52.17
2023-02-23T03:27:15.446Z,58.80
2023-02-23T03:30:48.319Z,54.97
2023-02-23T03:34:21.655Z,53.40
2023-02-23T03:37:49.749Z,52.07
2023-02-23T03:41:13.856Z,50.17
2023-02-23T03:44:44.491Z,53.20
2023-02-23T03:48:09.483Z,52.03
2023-02-23T03:51:33.629Z,56.80
2023-02-23T03:55:00.905Z,57.33
2023-02-23T03:58:26.955Z,50.50
2023-02-23T04:01:49.886Z,50.10
2023-02-23T04:05:19.984Z,62.87
2023-02-23T04:08:47.880Z,54.93
2023-02-23T04:12:16.361Z,58.67
2023-02-23T04:15:27.873Z,57.57
2023-02-23T04:18:34.885Z,57.03
2023-02-23T04:21:40.130Z,62.17
2023-02-23T04:24:43.947Z,54.73
2023-02-23T04:27:47.720Z,55.30
2023-02-23T04:30:53.078Z,56.77
2023-02-23T04:33:57.105Z,55.83
2023-02-23T04:37:02.318Z,60.03
2023-02-23T04:40:07.807Z,64.00
2023-02-23T04:43:13.736Z,63.70
2023-02-23T04:46:17.516Z,60.37
2023-02-23T04:49:21.376Z,61.13
2023-02-23T04:52:26.573Z,53.53
2023-02-23T04:55:30.504Z,63.77
2023-02-23T04:58:34.215Z,63.83
2023-02-23T05:01:38.207Z,65.77
2023-02-23T05:04:42.054Z,61.10
2023-02-23T05:07:50.280Z,67.47
2023-02-23T05:10:54.043Z,62.90
2023-02-23T05:13:57.848Z,62.63
2023-02-23T05:17:01.681Z,65.07
2023-02-23T05:20:06.321Z,66.53
2023-02-23T05:23:11.699Z,63.40
2023-02-23T05:26:16.044Z,67.70
2023-02-23T05:29:20.133Z,66.50
2023-02-23T05:32:24.144Z,59.07
2023-02-23T05:35:27.972Z,67.67
2023-02-23T05:38:33.263Z,64.03
2023-02-23T05:41:37.168Z,68.37
2023-02-23T05:44:41.106Z,64.30
2023-02-23T05:47:44.897Z,76.87
2023-02-23T05:50:48.782Z,73.33
2023-02-23T05:53:54.001Z,71.93
2023-02-23T05:56:59.002Z,70.00
2023-02-23T06:00:05.719Z,70.17
2023-02-23T06:03:09.611Z,72.37
2023-02-23T06:06:14.345Z,78.90
2023-02-23T06:09:19.672Z,68.27
2023-02-23T06:12:24.004Z,74.47
2023-02-23T06:15:29.891Z,71.73
2023-02-23T06:18:34.010Z,80.73
2023-02-23T06:21:37.939Z,84.27
2023-02-23T06:24:43.236Z,80.30
2023-02-23T06:27:47.143Z,101.10
2023-02-23T06:30:53.495Z,81.60
2023-02-23T06:33:57.416Z,79.03
2023-02-23T06:37:01.177Z,85.57
2023-02-23T06:40:08.513Z,86.87
2023-02-23T06:43:12.321Z,80.57
2023-02-23T06:46:16.191Z,84.13
2023-02-23T06:49:19.945Z,92.40
2023-02-23T06:52:25.156Z,92.90
2023-02-23T06:55:30.426Z,96.80
2023-02-23T06:58:34.543Z,94.87
2023-02-23T07:01:38.347Z,82.90
2023-02-23T07:04:42.547Z,96.43
2023-02-23T07:07:46.632Z,90.87
2023-02-23T07:10:51.836Z,97.77
2023-02-23T07:13:59.441Z,86.23
2023-02-23T07:17:04.372Z,89.17
2023-02-23T07:20:09.210Z,87.77
2023-02-23T07:23:13.023Z,89.60
2023-02-23T07:26:18.512Z,90.17
2023-02-23T07:29:24.122Z,87.40
2023-02-23T07:32:28.091Z,105.00
2023-02-23T07:35:32.003Z,98.67
2023-02-23T07:38:36.709Z,100.93
2023-02-23T07:41:41.974Z,92.80
2023-02-23T07:44:46.796Z,96.10
2023-02-23T07:47:50.701Z,110.17
2023-02-23T07:50:55.128Z,101.87
2023-02-23T07:54:05.951Z,92.13
2023-02-23T07:57:13.080Z,102.30
2023-02-23T08:00:17.970Z,99.27
2023-02-23T08:03:21.835Z,89.97
2023-02-23T08:06:25.709Z,104.77
2023-02-23T08:09:30.844Z,97.73
2023-02-23T08:12:36.265Z,105.33
2023-02-23T08:15:40.219Z,100.70
2023-02-23T08:18:44.195Z,104.57
2023-02-23T08:21:47.947Z,94.27
2023-02-23T08:24:51.795Z,93.87
2023-02-23T08:27:57.215Z,103.27
2023-02-23T08:31:01.269Z,113.90
2023-02-23T08:34:05.077Z,106.87
2023-02-23T08:37:09.292Z,110.63
2023-02-23T08:40:15.867Z,111.37
2023-02-23T08:43:21.002Z,110.27
2023-02-23T08:46:24.838Z,112.87
2023-02-23T08:49:28.640Z,112.83
2023-02-23T08:52:32.614Z,106.73
2023-02-23T08:55:37.324Z,105.20
2023-02-23T08:58:43.502Z,110.63
2023-02-23T09:01:47.327Z,114.27
2023-02-23T09:04:54.118Z,111.00
2023-02-23T09:07:57.937Z,127.97
2023-02-23T09:11:01.718Z,123.87
2023-02-23T09:14:07.093Z,121.70
2023-02-23T09:17:11.572Z,119.83
2023-02-23T09:20:18.864Z,123.83
2023-02-23T09:23:24.226Z,146.67
2023-02-23T09:26:29.426Z,133.97
2023-02-23T09:29:35.128Z,144.50
2023-02-23T09:32:39.035Z,148.60
2023-02-23T09:35:43.348Z,159.93
2023-02-23T09:38:50.484Z,155.43
2023-02-23T09:42:18.246Z,151.73
2023-02-23T09:45:38.691Z,159.63
2023-02-23T09:48:43.360Z,162.30
2023-02-23T09:51:55.448Z,153.07
2023-02-23T09:55:00.120Z,147.40
2023-02-23T09:58:15.008Z,143.90
2023-02-23T10:01:58.901Z,133.47
2023-02-23T10:05:09.780Z,131.43
2023-02-23T10:08:43.609Z,119.53
2023-02-23T10:11:57.358Z,112.80
2023-02-23T10:15:20.082Z,108.03
2023-02-23T10:18:46.647Z,106.93
2023-02-23T10:21:58.019Z,96.77
2023-02-23T10:25:07.629Z,85.83
2023-02-23T10:28:17.876Z,77.23
2023-02-23T10:31:34.755Z,85.87
2023-02-23T10:34:41.903Z,88.93
2023-02-23T10:37:47.369Z,71.20
2023-02-23T10:40:56.570Z,79.10
2023-02-23T10:44:15.441Z,75.27
2023-02-23T10:47:26.536Z,73.17
2023-02-23T10:50:33.896Z,76.60
2023-02-23T10:53:40.062Z,78.17
2023-02-23T10:56:48.512Z,69.97
2023-02-23T11:00:30.822Z,75.37
2023-02-23T11:03:40.561Z,80.30
2023-02-23T11:06:48.758Z,80.07
2023-02-23T11:09:52.956Z,72.67
2023-02-23T11:12:56.811Z,88.60
2023-02-23T11:16:10.456Z,89.13
2023-02-23T11:19:31.364Z,87.33
2023-02-23T11:22:42.398Z,80.97
2023-02-23T11:25:49.513Z,82.67
2023-02-23T11:28:57.779Z,88.60
2023-02-23T11:32:10.169Z,89.43
2023-02-23T11:35:29.491Z,101.07
2023-02-23T11:38:35.960Z,97.03
2023-02-23T11:41:39.899Z,90.77
2023-02-23T11:44:44.948Z,94.03
2023-02-23T11:47:52.070Z,94.03
2023-02-23T11:50:57.640Z,112.17
2023-02-23T11:54:05.941Z,104.67
2023-02-23T11:57:10.034Z,100.50
2023-02-23T12:00:25.464Z,101.03
2023-02-23T12:03:34.766Z,134.33
2023-02-23T12:06:41.374Z,134.90
2023-02-23T12:09:49.892Z,173.37
2023-02-23T12:13:07.529Z,150.93
2023-02-23T12:16:20.630Z,155.17
2023-02-23T12:19:33.080Z,162.57
2023-02-23T12:22:44.776Z,175.13
2023-02-23T12:25:56.221Z,153.47
2023-02-23T12:29:07.400Z,170.80
2023-02-23T12:32:20.302Z,177.53
2023-02-23T12:35:32.563Z,160.57
2023-02-23T12:38:52.082Z,190.97
2023-02-23T12:42:09.367Z,188.67
2023-02-23T12:45:25.771Z,186.93
2023-02-23T12:48:40.129Z,161.93
2023-02-23T12:51:52.955Z,161.70
2023-02-23T12:54:57.795Z,146.07
2023-02-23T12:58:15.977Z,134.43
2023-02-23T13:01:28.485Z,131.87
2023-02-23T13:05:13.178Z,127.67
2023-02-23T13:08:31.974Z,102.30
2023-02-23T13:11:59.877Z,119.23
2023-02-23T13:15:27.129Z,102.80
2023-02-23T13:18:38.672Z,95.37
2023-02-23T13:21:50.613Z,94.93
2023-02-23T13:25:00.000Z,87.30
2023-02-23T13:28:05.590Z,80.53
2023-02-23T13:31:23.760Z,88.47
2023-02-23T13:34:32.615Z,75.73
2023-02-23T13:37:48.048Z,77.73
2023-02-23T13:41:06.320Z,79.07
2023-02-23T13:44:26.606Z,67.33
2023-02-23T13:47:45.651Z,70.27
2023-02-23T13:51:01.237Z,74.67
2023-02-23T13:54:24.402Z,67.23
2023-02-23T13:57:30.162Z,76.03
2023-02-23T14:00:35.308Z,68.03
2023-02-23T14:03:54.786Z,66.07
2023-02-23T14:07:06.803Z,68.17
2023-02-23T14:10:21.430Z,64.17
2023-02-23T14:13:30.361Z,61.87
2023-02-23T14:16:34.436Z,63.10
2023-02-23T14:19:43.541Z,58.20
2023-02-23T14:23:30.265Z,63.70
2023-02-23T14:26:47.804Z,59.87
2023-02-23T14:30:27.314Z,62.30
2023-02-23T14:33:51.918Z,60.43
2023-02-23T14:36:57.176Z,59.07
2023-02-23T14:40:14.407Z,64.23
2023-02-23T14:43:44.092Z,59.50
2023-02-23T14:46:59.099Z,64.17
2023-02-23T14:50:04.035Z,57.73
2023-02-23T14:53:19.837Z,55.83
2023-02-23T14:56:35.503Z,56.53
2023-02-23T14:59:52.418Z,55.47
2023-02-23T15:03:00.406Z,59.37
2023-02-23T15:06:04.442Z,56.67
2023-02-23T15:09:19.478Z,51.90
2023-02-23T15:12:28.651Z,55.27
2023-02-23T15:15:49.875Z,49.23
2023-02-23T15:18:54.397Z,55.80
2023-02-23T15:22:01.702Z,54.87
2023-02-23T15:25:17.669Z,55.67
2023-02-23T15:28:29.664Z,56.03
2023-02-23T15:31:34.943Z,52.80
2023-02-23T15:34:39.027Z,59.23
2023-02-23T15:37:55.407Z,54.17
2023-02-23T15:41:23.240Z,45.87
2023-02-23T15:44:43.795Z,44.07
2023-02-23T15:47:48.781Z,43.27
2023-02-23T15:50:57.808Z,39.37
2023-02-23T15:54:06.825Z,47.53
2023-02-23T15:57:22.976Z,53.97
2023-02-23T16:00:38.094Z,39.00
2023-02-23T16:03:48.142Z,26.87
2023-02-23T16:06:55.498Z,31.50
2023-02-23T16:10:19.573Z,24.47
2023-02-23T16:13:27.393Z,26.63
2023-02-23T16:16:36.318Z,33.17
2023-02-23T16:19:42.094Z,36.20
2023-02-23T16:22:54.932Z,45.53
2023-02-23T16:26:06.787Z,31.97
2023-02-23T16:29:20.335Z,46.13
2023-02-23T16:32:24.964Z,31.90
2023-02-23T16:35:41.069Z,48.40
2023-02-23T16:38:59.136Z,33.07
2023-02-23T16:42:03.133Z,32.87
2023-02-23T16:45:17.278Z,25.60
2023-02-23T16:48:21.263Z,26.30
2023-02-23T16:51:25.058Z,38.07
2023-02-23T16:54:29.446Z,43.60
2023-02-23T16:57:42.011Z,19.40
2023-02-23T17:00:48.079Z,19.20
2023-02-23T17:03:54.092Z,27.67
2023-02-23T17:06:57.942Z,24.97
2023-02-23T17:10:01.743Z,25.40
2023-02-23T17:13:08.823Z,25.03
2023-02-23T17:16:15.451Z,18.87
2023-02-23T17:19:20.300Z,17.73
2023-02-23T17:22:24.104Z,28.37
2023-02-23T17:25:29.075Z,21.33
2023-02-23T17:28:32.949Z,27.47
2023-02-23T17:31:40.461Z,20.50
2023-02-23T17:34:44.345Z,14.93
2023-02-23T17:37:48.682Z,26.00
2023-02-23T17:40:52.405Z,27.57
2023-02-23T17:43:56.548Z,14.43
2023-02-23T17:47:01.768Z,16.57
2023-02-23T17:50:06.353Z,22.77
2023-02-23T17:53:10.173Z,25.50
2023-02-23T17:56:14.051Z,21.73
2023-02-23T17:59:17.907Z,27.00
2023-02-23T18:02:24.201Z,23.87
2023-02-23T18:05:28.211Z,12.23
2023-02-23T18:08:58.159Z,16.97
2023-02-23T18:12:03.410Z,16.37
2023-02-23T18:15:08.911Z,22.40
2023-02-23T18:18:14.192Z,19.53
2023-02-23T18:21:21.170Z,24.23
2023-02-23T18:24:25.202Z,14.30
2023-02-23T18:27:29.010Z,15.57
2023-02-23T18:30:32.936Z,19.43
2023-02-23T18:33:40.050Z,17.80
2023-02-23T18:36:44.276Z,30.63
2023-02-23T18:39:52.517Z,29.63
2023-02-23T18:42:58.299Z,22.10
2023-02-23T18:46:05.913Z,15.57
2023-02-23T18:49:16.061Z,26.43
2023-02-23T18:52:20.242Z,23.07
2023-02-23T18:55:24.997Z,15.70
2023-02-23T18:58:28.501Z,18.57
2023-02-23T19:01:34.684Z,17.23
2023-02-23T19:04:40.186Z,20.33
2023-02-23T19:07:44.348Z,20.90
2023-02-23T19:10:48.510Z,18.60
2023-02-23T19:13:53.069Z,13.07
2023-02-23T19:16:56.541Z,19.33
2023-02-23T19:20:01.822Z,16.10
2023-02-23T19:23:06.290Z,18.23
2023-02-23T19:26:09.798Z,17.03
2023-02-23T19:29:13.313Z,16.87
2023-02-23T19:32:18.049Z,11.73
2023-02-23T19:35:23.061Z,13.47
2023-02-23T19:38:27.528Z,18.93
2023-02-23T19:41:30.986Z,22.27
2023-02-23T19:44:34.774Z,17.13
2023-02-23T19:47:38.372Z,13.23
2023-02-23T19:50:49.571Z,16.63
2023-02-23T19:53:55.369Z,18.50
2023-02-23T19:56:58.967Z,14.47
2023-02-23T20:00:02.651Z,18.07
2023-02-23T20:03:07.359Z,17.17
2023-02-23T20:06:14.518Z,18.27
2023-02-23T20:09:18.251Z,14.43
2023-02-23T20:12:21.977Z,16.00
2023-02-23T20:15:42.774Z,13.07
2023-02-23T20:18:47.047Z,10.90
2023-02-23T20:21:52.376Z,22.93
2023-02-23T20:24:56.929Z,14.87
2023-02-23T20:28:00.514Z,15.60
2023-02-23T20:31:05.616Z,16.60
2023-02-23T20:34:12.094Z,17.53
2023-02-23T20:37:17.129Z,13.77
2023-02-23T20:40:23.061Z,14.53
2023-02-23T20:43:26.537Z,15.17
2023-02-23T20:46:31.005Z,15.53
2023-02-23T20:49:34.616Z,12.50
2023-02-23T20:52:40.516Z,17.70
2023-02-23T20:55:43.992Z,16.00
2023-02-23T20:58:48.666Z,11.83
2023-02-23T21:01:52.123Z,14.53
2023-02-23T21:04:55.826Z,12.40
2023-02-23T21:08:03.037Z,15.27
2023-02-23T21:11:07.909Z,11.70
2023-02-23T21:14:12.019Z,15.67
2023-02-23T21:17:15.558Z,19.27
2023-02-23T21:20:21.116Z,20.20
2023-02-23T21:23:26.768Z,25.40
2023-02-23T21:26:30.569Z,20.47
2023-02-23T21:29:34.108Z,14.27
2023-02-23T21:32:42.177Z,15.93
2023-02-23T21:35:45.839Z,14.60
2023-02-23T21:38:51.359Z,12.40
2023-02-23T21:41:54.930Z,12.67
2023-02-23T21:44:58.423Z,10.90
2023-02-23T21:48:04.075Z,15.37
2023-02-23T21:51:11.453Z,14.13
2023-02-23T21:54:16.602Z,13.47
2023-02-23T21:57:22.710Z,7.83
2023-02-23T22:00:28.075Z,14.67
2023-02-23T22:03:31.541Z,10.90
2023-02-23T22:06:40.263Z,12.07
2023-02-23T22:09:45.539Z,16.70
2023-02-23T22:12:50.671Z,10.43
2023-02-23T22:15:59.988Z,11.63
2023-02-23T22:19:05.074Z,12.60
2023-02-23T22:22:08.537Z,11.83
2023-02-23T22:25:13.559Z,11.23
2023-02-23T22:28:16.987Z,12.10
2023-02-23T22:31:21.012Z,16.17
2023-02-23T22:34:24.678Z,10.87
2023-02-23T22:37:30.021Z,12.30
2023-02-23T22:40:35.859Z,14.40
2023-02-23T22:43:40.290Z,10.63
2023-02-23T22:46:46.524Z,13.47
2023-02-23T22:49:51.014Z,8.93
2023-02-23T22:52:54.452Z,11.40
2023-02-23T22:55:59.694Z,15.37
2023-02-23T22:59:06.222Z,12.73
2023-02-23T23:02:11.798Z,17.03
2023-02-23T23:05:16.240Z,10.30
2023-02-23T23:08:19.731Z,11.13
2023-02-23T23:11:28.390Z,9.10
2023-02-23T23:14:32.685Z,11.43
2023-02-23T23:17:36.133Z,10.77
2023-02-23T23:20:39.637Z,11.30
2023-02-23T23:23:46.125Z,10.33
2023-02-23T23:26:55.540Z,12.93
2023-02-23T23:29:59.116Z,9.47
2023-02-23T23:33:03.444Z,9.43
2023-02-23T23:36:08.298Z,7.90
2023-02-23T23:39:13.261Z,6.83
2023-02-23T23:42:18.134Z,6.47
2023-02-23T23:45:25.223Z,13.67
2023-02-23T23:48:29.651Z,7.00
2023-02-23T23:51:38.797Z,9.13
2023-02-23T23:54:42.886Z,7.50
2023-02-23T23:57:47.964Z,11.97
